createdAt,value
2023-02-24T00:00:31.012Z,98408.61
2023-02-24T00:03:12.731Z,98407.37
2023-02-24T00:05:42.845Z,98403.33
2023-02-24T00:08:10.694Z,98399.16
2023-02-24T00:10:38.484Z,98395.69
2023-02-24T00:13:06.341Z,98396.91
2023-02-24T00:15:34.179Z,98391.66
2023-02-24T00:18:07.150Z,98388.27
2023-02-24T00:20:35.610Z,98387.43
2023-02-24T00:23:03.809Z,98377.77
2023-02-24T00:25:31.652Z,98371.98
2023-02-24T00:28:01.652Z,98371.02
2023-02-24T00:30:31.549Z,98367.75
2023-02-24T00:33:01.397Z,98369.46
2023-02-24T00:35:32.248Z,98364.94
2023-02-24T00:38:00.817Z,98362.96
2023-02-24T00:40:30.767Z,98361.61
2023-02-24T00:43:00.481Z,98357.80
2023-02-24T00:45:30.960Z,98355.92
2023-02-24T00:47:58.928Z,98354.26
2023-02-24T00:50:26.852Z,98347.68
2023-02-24T00:52:54.631Z,98349.85
2023-02-24T00:55:23.261Z,98348.61
2023-02-24T00:57:51.086Z,98345.41
2023-02-24T01:00:23.426Z,98340.30
2023-02-24T01:02:51.321Z,98333.92
2023-02-24T01:05:20.210Z,98335.83
2023-02-24T01:07:48.076Z,98331.17
2023-02-24T01:10:18.445Z,98330.34
2023-02-24T01:12:54.077Z,98332.69
2023-02-24T01:15:22.877Z,98329.95
2023-02-24T01:17:50.824Z,98326.21
2023-02-24T01:20:19.126Z,98326.70
2023-02-24T01:22:50.580Z,98322.89
2023-02-24T01:25:20.524Z,98323.23
2023-02-24T01:27:49.028Z,98316.20
2023-02-24T01:30:18.344Z,98311.81
2023-02-24T01:32:47.301Z,98305.10
2023-02-24T01:35:15.963Z,98302.23
2023-02-24T01:37:45.194Z,98301.93
2023-02-24T01:40:18.786Z,98299.05
2023-02-24T01:42:47.730Z,98298.23
2023-02-24T01:45:22.850Z,98296.10
2023-02-24T01:47:52.208Z,98292.02
2023-02-24T01:50:25.999Z,98284.92
2023-02-24T01:52:58.831Z,98282.87
2023-02-24T01:55:32.783Z,98280.63
2023-02-24T01:58:07.881Z,98278.06
2023-02-24T02:00:39.054Z,98272.51
2023-02-24T02:03:12.176Z,98266.46
2023-02-24T02:05:42.414Z,98261.77
2023-02-24T02:08:11.180Z,98263.55
2023-02-24T02:10:41.333Z,98261.88
2023-02-24T02:13:09.197Z,98259.36
2023-02-24T02:15:47.739Z,98260.02
2023-02-24T02:18:36.425Z,98258.95
2023-02-24T02:21:32.622Z,98252.47
2023-02-24T02:24:09.241Z,98255.76
2023-02-24T02:27:02.376Z,98250.42
2023-02-24T02:29:53.286Z,98253.60
2023-02-24T02:32:31.744Z,98252.98
2023-02-24T02:35:18.865Z,98248.81
2023-02-24T02:37:57.116Z,98242.96
2023-02-24T02:40:39.026Z,98241.17
2023-02-24T02:43:25.953Z,98242.72
2023-02-24T02:46:14.904Z,98237.35
2023-02-24T02:48:57.348Z,98237.52
2023-02-24T02:51:32.168Z,98238.13
2023-02-24T02:54:33.963Z,98234.80
2023-02-24T02:57:12.938Z,98234.39
2023-02-24T02:59:49.317Z,98232.12
2023-02-24T03:02:28.626Z,98232.80
2023-02-24T03:05:02.163Z,98231.02
2023-02-24T03:07:37.584Z,98227.45
2023-02-24T03:10:17.645Z,98226.75
2023-02-24T03:12:50.657Z,98226.91
2023-02-24T03:15:24.153Z,98228.09
2023-02-24T03:18:12.032Z,98228.20
2023-02-24T03:20:47.866Z,98229.58
2023-02-24T03:23:25.768Z,98227.24
2023-02-24T03:25:58.857Z,98228.10
2023-02-24T03:28:37.347Z,98223.66
2023-02-24T03:31:18.208Z,98218.00
2023-02-24T03:34:00.640Z,98212.35
2023-02-24T03:36:29.501Z,98214.23
2023-02-24T03:38:58.643Z,98221.73
2023-02-24T03:41:31.651Z,98219.31
2023-02-24T03:44:01.520Z,98217.04
2023-02-24T03:46:31.922Z,98211.89
2023-02-24T03:49:17.052Z,98207.87
2023-02-24T03:51:59.669Z,98204.59
2023-02-24T03:54:48.420Z,98204.88
2023-02-24T03:57:27.182Z,98201.71
2023-02-24T04:00:26.050Z,98202.05
2023-02-24T04:03:09.675Z,98199.97
2023-02-24T04:05:47.650Z,98201.23
2023-02-24T04:08:17.196Z,98199.23
2023-02-24T04:10:57.444Z,98197.39
2023-02-24T04:14:09.938Z,98194.02
2023-02-24T04:16:54.112Z,98189.46
2023-02-24T04:19:27.676Z,98184.70
2023-02-24T04:21:57.289Z,98180.44
2023-02-24T04:24:30.465Z,98179.05
2023-02-24T04:27:01.938Z,98181.71
2023-02-24T04:29:35.850Z,98176.98
2023-02-24T04:32:08.961Z,98171.12
2023-02-24T04:34:40.354Z,98171.75
2023-02-24T04:37:09.213Z,98165.73
2023-02-24T04:39:38.496Z,98164.87
2023-02-24T04:42:10.876Z,98164.56
2023-02-24T04:44:38.683Z,98162.25
2023-02-24T04:47:07.274Z,98156.73
2023-02-24T04:49:35.191Z,98153.73
2023-02-24T04:52:03.068Z,98150.16
2023-02-24T04:54:31.524Z,98150.44
2023-02-24T04:56:59.498Z,98149.29
2023-02-24T04:59:27.947Z,98145.83
2023-02-24T05:02:00.402Z,98145.38
2023-02-24T05:04:30.111Z,98142.11
2023-02-24T05:06:57.990Z,98139.20
2023-02-24T05:09:30.025Z,98136.23
2023-02-24T05:11:58.403Z,98136.56
2023-02-24T05:14:26.354Z,98133.77
2023-02-24T05:17:00.036Z,98134.71
2023-02-24T05:19:47.460Z,98131.71
2023-02-24T05:22:17.637Z,98127.80
2023-02-24T05:24:48.009Z,98129.21
2023-02-24T05:27:17.294Z,98127.48
2023-02-24T05:29:45.200Z,98126.57
2023-02-24T05:32:13.191Z,98124.65
2023-02-24T05:34:42.709Z,98118.73
2023-02-24T05:37:10.857Z,98120.16
2023-02-24T05:39:38.786Z,98118.80
2023-02-24T05:42:07.149Z,98115.30
2023-02-24T05:44:35.949Z,98116.27
2023-02-24T05:47:05.541Z,98113.64
2023-02-24T05:49:35.260Z,98112.21
2023-02-24T05:52:08.769Z,98113.44
2023-02-24T05:54:39.900Z,98110.54
2023-02-24T05:57:21.330Z,98112.96
2023-02-24T05:59:50.569Z,98112.56
2023-02-24T06:02:27.483Z,98116.75
2023-02-24T06:04:56.065Z,98116.66
2023-02-24T06:07:28.733Z,98119.52
2023-02-24T06:09:58.793Z,98118.77
2023-02-24T06:12:31.871Z,98115.65
2023-02-24T06:15:00.406Z,98113.62
2023-02-24T06:17:28.574Z,98115.13
2023-02-24T06:19:56.742Z,98114.70
2023-02-24T06:22:26.411Z,98112.50
2023-02-24T06:24:55.212Z,98120.31
2023-02-24T06:27:24.953Z,98123.67
2023-02-24T06:29:54.975Z,98129.25
2023-02-24T06:32:25.592Z,98128.15
2023-02-24T06:34:54.438Z,98119.95
2023-02-24T06:37:25.479Z,98123.55
2023-02-24T06:39:53.413Z,98127.90
2023-02-24T06:42:21.901Z,98122.97
2023-02-24T06:44:50.405Z,98127.06
2023-02-24T06:47:18.566Z,98126.88
2023-02-24T06:49:47.974Z,98132.25
2023-02-24T06:52:19.087Z,98134.35
2023-02-24T06:54:49.084Z,98129.09
2023-02-24T06:57:17.380Z,98130.27
2023-02-24T06:59:46.116Z,98124.90
2023-02-24T07:02:14.193Z,98121.90
2023-02-24T07:04:44.789Z,98119.74
2023-02-24T07:07:14.417Z,98118.98
2023-02-24T07:09:42.715Z,98119.16
2023-02-24T07:12:12.539Z,98122.47
2023-02-24T07:14:40.820Z,98119.09
2023-02-24T07:17:08.874Z,98120.67
2023-02-24T07:19:36.947Z,98124.20
2023-02-24T07:22:04.857Z,98118.11
2023-02-24T07:24:40.653Z,98117.52
2023-02-24T07:27:12.630Z,98116.67
2023-02-24T07:29:40.511Z,98120.72
2023-02-24T07:32:09.454Z,98116.13
2023-02-24T07:34:41.007Z,98108.86
2023-02-24T07:37:10.154Z,98105.18
2023-02-24T07:39:39.494Z,98106.79
2023-02-24T07:42:09.684Z,98106.67
2023-02-24T07:44:46.652Z,98107.91
2023-02-24T07:47:15.902Z,98111.30
2023-02-24T07:49:45.252Z,98108.30
2023-02-24T07:52:13.408Z,98104.82
2023-02-24T07:54:41.249Z,98101.52
2023-02-24T07:57:13.982Z,98103.98
2023-02-24T07:59:46.772Z,98102.03
2023-02-24T08:02:15.859Z,98103.48
2023-02-24T08:04:50.111Z,98106.34
2023-02-24T08:07:24.767Z,98103.20
2023-02-24T08:10:12.121Z,98101.40
2023-02-24T08:12:44.544Z,98096.25
2023-02-24T08:15:23.747Z,98094.67
2023-02-24T08:17:59.629Z,98086.04
2023-02-24T08:20:36.005Z,98082.58
2023-02-24T08:23:06.496Z,98077.36
2023-02-24T08:25:37.197Z,98075.02
2023-02-24T08:28:11.447Z,98068.61
2023-02-24T08:30:47.108Z,98067.42
2023-02-24T08:33:22.040Z,98067.23
2023-02-24T08:36:01.003Z,98066.02
2023-02-24T08:38:42.058Z,98062.50
2023-02-24T08:41:18.251Z,98064.63
2023-02-24T08:43:48.398Z,98063.70
2023-02-24T08:46:26.589Z,98062.98
2023-02-24T08:49:00.569Z,98061.25
2023-02-24T08:51:34.581Z,98059.11
2023-02-24T08:54:11.398Z,98059.08
2023-02-24T08:56:43.546Z,98053.23
2023-02-24T08:59:29.366Z,98048.88
2023-02-24T09:02:18.403Z,98042.61
2023-02-24T09:04:59.004Z,98044.45
2023-02-24T09:07:35.529Z,98045.05
2023-02-24T09:10:17.761Z,98043.50
2023-02-24T09:12:47.010Z,98039.33
2023-02-24T09:15:15.743Z,98038.23
2023-02-24T09:17:45.392Z,98036.46
2023-02-24T09:20:27.128Z,98031.11
2023-02-24T09:23:07.772Z,98028.13
2023-02-24T09:25:41.742Z,98015.86
2023-02-24T09:28:24.624Z,98014.49
2023-02-24T09:30:58.487Z,98012.13
2023-02-24T09:33:28.075Z,98010.66
2023-02-24T09:36:10.326Z,98011.05
2023-02-24T09:39:09.809Z,98008.55
2023-02-24T09:42:07.984Z,98006.68
2023-02-24T09:44:42.075Z,98004.27
2023-02-24T09:47:31.008Z,97993.20
2023-02-24T09:50:05.978Z,97988.70
2023-02-24T09:52:43.166Z,97986.11
2023-02-24T09:55:27.665Z,97981.48
2023-02-24T09:58:26.971Z,97976.76
2023-02-24T10:01:21.278Z,97973.66
2023-02-24T10:04:18.548Z,97968.35
2023-02-24T10:06:49.150Z,97972.45
2023-02-24T10:09:24.703Z,97968.34
2023-02-24T10:12:04.061Z,97965.93
2023-02-24T10:14:53.019Z,97964.12
2023-02-24T10:17:24.259Z,97962.19
2023-02-24T10:20:00.091Z,97955.98
2023-02-24T10:22:50.789Z,97958.78
2023-02-24T10:25:37.498Z,97954.20
2023-02-24T10:28:43.950Z,97940.30
2023-02-24T10:31:25.993Z,97933.70
2023-02-24T10:34:06.118Z,97934.16
2023-02-24T10:36:39.312Z,97929.97
2023-02-24T10:39:17.064Z,97927.59
2023-02-24T10:41:50.168Z,97926.63
2023-02-24T10:44:25.583Z,97915.23
2023-02-24T10:47:12.482Z,97912.54
2023-02-24T10:49:57.146Z,97906.73
2023-02-24T10:53:06.725Z,97901.83
2023-02-24T10:55:45.353Z,97902.71
2023-02-24T10:58:28.522Z,97897.50
2023-02-24T11:01:11.959Z,97891.39
2023-02-24T11:03:48.172Z,97884.23
2023-02-24T11:06:41.310Z,97879.50
2023-02-24T11:09:30.089Z,97873.20
2023-02-24T11:12:38.454Z,97860.65
2023-02-24T11:15:37.478Z,97844.05
2023-02-24T11:18:07.011Z,97826.23
2023-02-24T11:20:49.497Z,97822.73
2023-02-24T11:23:23.643Z,97835.88
2023-02-24T11:26:04.716Z,97833.48
2023-02-24T11:28:48.907Z,97829.05
2023-02-24T11:31:28.770Z,97823.48
2023-02-24T11:34:07.607Z,97816.59
2023-02-24T11:36:58.096Z,97812.45
2023-02-24T11:39:53.081Z,97805.34
2023-02-24T11:42:46.118Z,97796.14
2023-02-24T11:45:29.979Z,97789.29
2023-02-24T11:48:03.073Z,97780.33
2023-02-24T11:50:39.837Z,97771.47
2023-02-24T11:53:35.493Z,97769.20
2023-02-24T11:56:11.155Z,97762.63
2023-02-24T11:59:21.310Z,97759.89
2023-02-24T12:02:10.605Z,97753.41
2023-02-24T12:04:52.549Z,97755.40
2023-02-24T12:07:39.023Z,97753.10
2023-02-24T12:10:17.774Z,97743.17
2023-02-24T12:13:16.202Z,97740.06
2023-02-24T12:15:50.630Z,97736.96
2023-02-24T12:18:39.679Z,97731.30
2023-02-24T12:21:21.598Z,97725.33
2023-02-24T12:23:53.619Z,97717.96
2023-02-24T12:26:24.302Z,97710.51
2023-02-24T12:29:27.881Z,97713.48
2023-02-24T12:32:01.755Z,97706.02
2023-02-24T12:34:43.501Z,97700.20
2023-02-24T12:37:40.203Z,97699.09
2023-02-24T12:40:14.230Z,97695.43
2023-02-24T12:43:03.642Z,97685.57
2023-02-24T12:45:47.797Z,97684.73
2023-02-24T12:48:40.711Z,97684.50
2023-02-24T12:51:28.554Z,97678.77
2023-02-24T12:54:15.529Z,97675.71
2023-02-24T12:57:02.720Z,97670.44
2023-02-24T12:59:38.086Z,97670.54
2023-02-24T13:02:14.997Z,97670.08
2023-02-24T13:05:10.139Z,97664.44
2023-02-24T13:07:48.335Z,97660.23
2023-02-24T13:10:28.648Z,97649.88
2023-02-24T13:13:16.460Z,97639.38
2023-02-24T13:15:56.309Z,97628.83
2023-02-24T13:18:36.579Z,97620.27
2023-02-24T13:21:23.423Z,97616.77
2023-02-24T13:24:01.083Z,97607.81
2023-02-24T13:26:32.143Z,97603.88
2023-02-24T13:29:11.479Z,97600.40
2023-02-24T13:31:50.881Z,97598.09
2023-02-24T13:34:21.905Z,97594.92
2023-02-24T13:36:50.327Z,97592.41
2023-02-24T13:39:24.277Z,97589.14
2023-02-24T13:42:04.274Z,97584.52
2023-02-24T13:44:32.774Z,97574.42
2023-02-24T13:47:15.803Z,97572.84
2023-02-24T13:49:54.389Z,97574.23
2023-02-24T13:53:00.751Z,97568.14
2023-02-24T13:55:39.698Z,97564.55
2023-02-24T13:58:19.203Z,97560.35
2023-02-24T14:00:59.898Z,97556.41
2023-02-24T14:03:29.213Z,97555.69
2023-02-24T14:05:59.301Z,97554.33
2023-02-24T14:08:36.572Z,97553.08
2023-02-24T14:11:06.746Z,97549.33
2023-02-24T14:13:36.684Z,97547.48
2023-02-24T14:16:11.830Z,97553.56
2023-02-24T14:18:41.022Z,97551.21
2023-02-24T14:21:21.462Z,97550.09
2023-02-24T14:24:00.562Z,97546.08
2023-02-24T14:26:33.619Z,97541.89
2023-02-24T14:29:02.134Z,97539.58
2023-02-24T14:31:30.443Z,97539.75
2023-02-24T14:34:03.452Z,97536.23
2023-02-24T14:36:35.790Z,97534.90
2023-02-24T14:39:16.868Z,97529.04
2023-02-24T14:41:46.092Z,97521.67
2023-02-24T14:44:27.201Z,97520.36
2023-02-24T14:46:57.444Z,97519.33
2023-02-24T14:49:30.845Z,97519.03
2023-02-24T14:52:05.543Z,97513.77
2023-02-24T14:54:36.398Z,97512.77
2023-02-24T14:57:04.955Z,97509.52
2023-02-24T14:59:40.091Z,97507.47
2023-02-24T15:02:15.310Z,97504.05
2023-02-24T15:04:44.602Z,97501.12
2023-02-24T15:07:30.907Z,97487.33
2023-02-24T15:10:00.128Z,97481.27
2023-02-24T15:12:46.840Z,97477.11
2023-02-24T15:15:21.994Z,97479.11
2023-02-24T15:17:55.574Z,97475.98
2023-02-24T15:20:31.155Z,97476.07
2023-02-24T15:22:59.526Z,97473.03
2023-02-24T15:25:43.448Z,97465.31
2023-02-24T15:28:31.477Z,97462.70
2023-02-24T15:31:19.839Z,97456.59
2023-02-24T15:34:00.327Z,97454.73
2023-02-24T15:36:32.751Z,97453.98
2023-02-24T15:39:11.826Z,97450.82
2023-02-24T15:41:40.799Z,97449.33
2023-02-24T15:44:25.184Z,97442.42
2023-02-24T15:46:53.518Z,97447.06
2023-02-24T15:49:21.475Z,97455.98
2023-02-24T15:51:52.393Z,97456.77
2023-02-24T15:54:25.116Z,97451.64
2023-02-24T15:56:53.030Z,97446.48
2023-02-24T15:59:23.432Z,97445.98
2023-02-24T16:01:54.161Z,97440.44
2023-02-24T16:04:23.221Z,97431.60
2023-02-24T16:06:54.689Z,97437.38
2023-02-24T16:09:39.912Z,97434.88
2023-02-24T16:12:14.970Z,97425.41
2023-02-24T16:14:43.905Z,97421.22
2023-02-24T16:17:28.128Z,97432.70
2023-02-24T16:19:56.928Z,97442.87
2023-02-24T16:22:24.909Z,97445.08
2023-02-24T16:24:53.166Z,97446.48
2023-02-24T16:27:23.356Z,97446.15
2023-02-24T16:29:51.244Z,97446.17
2023-02-24T16:32:22.158Z,97449.39
2023-02-24T16:34:50.154Z,97447.64
2023-02-24T16:37:26.352Z,97443.51
2023-02-24T16:39:54.836Z,97439.73
2023-02-24T16:42:23.012Z,97441.27
2023-02-24T16:44:51.149Z,97447.36
2023-02-24T16:47:22.898Z,97442.89
2023-02-24T16:49:55.336Z,97435.81
2023-02-24T16:52:24.802Z,97433.05
2023-02-24T16:54:52.700Z,97424.84
2023-02-24T16:57:25.639Z,97418.66
2023-02-24T16:59:53.717Z,97421.52
2023-02-24T17:02:26.070Z,97418.23
2023-02-24T17:04:54.204Z,97409.05
2023-02-24T17:07:22.082Z,97403.27
2023-02-24T17:09:50.494Z,97404.86
2023-02-24T17:12:21.912Z,97397.85
2023-02-24T17:14:49.982Z,97392.92
2023-02-24T17:17:17.917Z,97390.95
2023-02-24T17:19:45.742Z,97388.54
2023-02-24T17:22:13.572Z,97386.23
2023-02-24T17:24:41.412Z,97383.23
2023-02-24T17:27:11.062Z,97385.19
2023-02-24T17:29:38.920Z,97377.21
2023-02-24T17:32:06.917Z,97371.08
2023-02-24T17:34:34.844Z,97376.39
2023-02-24T17:37:03.688Z,97380.69
2023-02-24T17:39:32.671Z,97382.52
2023-02-24T17:42:00.888Z,97383.28
2023-02-24T17:44:28.840Z,97378.35
2023-02-24T17:46:56.741Z,97372.73
2023-02-24T17:49:24.860Z,97365.11
2023-02-24T17:51:52.859Z,97362.24
2023-02-24T17:54:20.727Z,97359.73
2023-02-24T17:56:48.642Z,97356.70
2023-02-24T17:59:16.604Z,97356.30
2023-02-24T18:01:44.431Z,97356.33
2023-02-24T18:04:14.742Z,97351.92
2023-02-24T18:06:43.368Z,97347.60
2023-02-24T18:09:11.856Z,97338.61
2023-02-24T18:11:39.791Z,97337.28
2023-02-24T18:14:07.717Z,97335.90
2023-02-24T18:16:35.686Z,97335.35
2023-02-24T18:19:04.266Z,97336.08
2023-02-24T18:21:32.319Z,97339.08
2023-02-24T18:24:00.156Z,97341.79
2023-02-24T18:26:28.617Z,97335.89
2023-02-24T18:28:58.297Z,97339.27
2023-02-24T18:31:28.066Z,97340.15
2023-02-24T18:33:57.152Z,97337.06
2023-02-24T18:36:26.029Z,97337.86
2023-02-24T18:38:54.041Z,97339.08
2023-02-24T18:41:23.611Z,97337.69
2023-02-24T18:43:54.240Z,97338.74
2023-02-24T18:46:23.604Z,97332.23
2023-02-24T18:48:51.937Z,97322.46
2023-02-24T18:51:22.289Z,97314.25
2023-02-24T18:53:52.783Z,97320.20
2023-02-24T18:56:24.550Z,97321.64
2023-02-24T18:58:56.214Z,97311.41
2023-02-24T19:01:27.153Z,97305.41
2023-02-24T19:03:56.322Z,97297.92
2023-02-24T19:06:26.979Z,97296.17
2023-02-24T19:08:58.873Z,97290.27
2023-02-24T19:11:27.155Z,97279.24
2023-02-24T19:13:55.751Z,97265.96
2023-02-24T19:16:23.951Z,97256.15
2023-02-24T19:18:53.768Z,97259.40
2023-02-24T19:21:21.755Z,97266.12
2023-02-24T19:23:50.467Z,97272.42
2023-02-24T19:26:21.287Z,97275.09
2023-02-24T19:28:49.760Z,97270.02
2023-02-24T19:31:20.819Z,97264.06
2023-02-24T19:34:08.625Z,97255.02
2023-02-24T19:36:37.736Z,97250.69
2023-02-24T19:39:09.645Z,97245.37
2023-02-24T19:41:38.316Z,97240.35
2023-02-24T19:44:06.142Z,97237.95
2023-02-24T19:46:34.374Z,97231.78
2023-02-24T19:49:03.115Z,97225.19
2023-02-24T19:51:31.343Z,97224.48
2023-02-24T19:54:03.174Z,97216.27
2023-02-24T19:56:33.932Z,97212.58
2023-02-24T19:59:03.780Z,97208.34
2023-02-24T20:01:32.262Z,97206.14
2023-02-24T20:04:02.290Z,97210.27
2023-02-24T20:06:33.210Z,97212.91
2023-02-24T20:09:02.430Z,97213.31
2023-02-24T20:11:31.021Z,97209.85
2023-02-24T20:13:58.936Z,97210.95
2023-02-24T20:16:31.983Z,97209.52
2023-02-24T20:19:00.678Z,97207.23
2023-02-24T20:21:29.207Z,97200.93
2023-02-24T20:24:01.409Z,97202.99
2023-02-24T20:26:30.061Z,97198.09
2023-02-24T20:28:59.993Z,97199.19
2023-02-24T20:31:28.641Z,97195.25
2023-02-24T20:33:56.651Z,97192.98
2023-02-24T20:36:26.948Z,97191.33
2023-02-24T20:38:57.775Z,97193.06
2023-02-24T20:41:27.721Z,97193.22
2023-02-24T20:43:55.932Z,97192.20
2023-02-24T20:46:29.653Z,97189.84
2023-02-24T20:48:59.335Z,97186.58
2023-02-24T20:51:29.481Z,97183.95
2023-02-24T20:53:58.785Z,97179.61
2023-02-24T20:56:29.667Z,97179.61
2023-02-24T20:59:13.796Z,97176.15
2023-02-24T21:01:42.316Z,97171.02
2023-02-24T21:04:12.650Z,97166.27
2023-02-24T21:06:41.023Z,97164.14
2023-02-24T21:09:11.884Z,97162.56
2023-02-24T21:11:39.992Z,97162.64
2023-02-24T21:14:08.070Z,97160.42
2023-02-24T21:16:35.933Z,97155.16
2023-02-24T21:19:03.781Z,97152.89
2023-02-24T21:21:31.614Z,97156.46
2023-02-24T21:23:59.413Z,97154.59
2023-02-24T21:26:29.184Z,97151.09
2023-02-24T21:28:58.610Z,97145.14
2023-02-24T21:31:27.195Z,97139.66
2023-02-24T21:33:55.948Z,97138.84
2023-02-24T21:36:26.054Z,97138.80
2023-02-24T21:38:55.369Z,97139.10
2023-02-24T21:41:23.924Z,97136.06
2023-02-24T21:43:57.088Z,97133.20
2023-02-24T21:46:28.136Z,97133.59
2023-02-24T21:48:59.548Z,97130.97
2023-02-24T21:51:28.375Z,97134.42
2023-02-24T21:53:57.305Z,97130.14
2023-02-24T21:56:27.924Z,97127.58
2023-02-24T21:59:01.159Z,97125.23
2023-02-24T22:01:34.913Z,97126.12
2023-02-24T22:04:05.644Z,97126.48
2023-02-24T22:06:35.863Z,97122.94
2023-02-24T22:09:06.199Z,97123.96
2023-02-24T22:11:36.606Z,97126.71
2023-02-24T22:14:08.334Z,97122.92
2023-02-24T22:16:36.804Z,97121.19
2023-02-24T22:19:04.935Z,97123.70
2023-02-24T22:21:33.294Z,97123.25
2023-02-24T22:24:02.999Z,97120.61
2023-02-24T22:26:32.179Z,97122.08
2023-02-24T22:29:01.051Z,97122.51
2023-02-24T22:31:32.368Z,97117.20
2023-02-24T22:34:01.076Z,97116.44
2023-02-24T22:36:33.455Z,97117.20
2023-02-24T22:39:02.234Z,97118.84
2023-02-24T22:41:32.981Z,97115.66
2023-02-24T22:44:02.905Z,97112.33
2023-02-24T22:46:33.960Z,97114.93
2023-02-24T22:49:02.868Z,97117.69
2023-02-24T22:51:31.138Z,97114.95
2023-02-24T22:53:58.966Z,97118.05
2023-02-24T22:56:29.041Z,97121.05
2023-02-24T22:58:58.214Z,97124.27
2023-02-24T23:01:31.884Z,97117.46
2023-02-24T23:04:01.196Z,97116.97
2023-02-24T23:06:30.640Z,97113.52
2023-02-24T23:09:00.495Z,97112.69
2023-02-24T23:11:31.041Z,97113.61
2023-02-24T23:14:02.144Z,97113.78
2023-02-24T23:16:31.967Z,97109.80
2023-02-24T23:19:05.996Z,97108.15
2023-02-24T23:21:39.868Z,97104.25
2023-02-24T23:24:10.955Z,97098.02
2023-02-24T23:26:41.847Z,97099.55
2023-02-24T23:29:11.881Z,97096.70
2023-02-24T23:31:41.094Z,97094.06
2023-02-24T23:34:10.053Z,97095.61
2023-02-24T23:36:40.763Z,97094.51
2023-02-24T23:39:09.310Z,97088.89
2023-02-24T23:41:38.487Z,97084.77
2023-02-24T23:44:06.381Z,97089.34
2023-02-24T23:46:35.864Z,97086.60
2023-02-24T23:49:05.184Z,97085.45
2023-02-24T23:51:46.916Z,97081.98
2023-02-24T23:54:16.964Z,97082.59
2023-02-24T23:56:44.852Z,97081.68
2023-02-24T23:59:12.698Z,97077.58
